createdAt,value
2018-05-14T00:01:46.541Z,77.40
2018-05-14T00:04:14.035Z,77.50
2018-05-14T00:06:42.285Z,77.40
2018-05-14T00:09:09.797Z,77.30
2018-05-14T00:11:37.268Z,77.40
2018-05-14T00:14:04.733Z,77.40
2018-05-14T00:16:32.241Z,77.50
2018-05-14T00:18:59.721Z,77.50
2018-05-14T00:21:27.982Z,77.30
2018-05-14T00:23:56.220Z,77.40
2018-05-14T00:26:23.717Z,77.30
2018-05-14T00:28:51.188Z,77.10
2018-05-14T00:31:19.453Z,77.10
2018-05-14T00:33:47.689Z,77.40
2018-05-14T00:36:15.162Z,77.30
2018-05-14T00:38:42.669Z,77.20
2018-05-14T00:41:10.181Z,77.30
2018-05-14T00:43:37.688Z,77.20
2018-05-14T00:46:05.177Z,77.00
2018-05-14T00:48:32.662Z,77.10
2018-05-14T00:51:00.125Z,77.00
2018-05-14T00:53:27.629Z,77.10
2018-05-14T00:55:55.109Z,77.20
2018-05-14T00:58:22.597Z,77.10
2018-05-14T01:00:50.867Z,77.30
2018-05-14T01:03:18.375Z,77.20
2018-05-14T01:05:45.849Z,77.20
2018-05-14T01:08:13.354Z,77.20
2018-05-14T01:10:40.826Z,77.10
2018-05-14T01:13:09.065Z,77.20
2018-05-14T01:15:36.553Z,77.20
2018-05-14T01:18:04.032Z,77.10
2018-05-14T01:20:32.302Z,77.20
2018-05-14T01:23:00.550Z,77.30
2018-05-14T01:25:28.087Z,77.30
2018-05-14T01:27:55.566Z,77.30
2018-05-14T01:30:23.061Z,77.10
2018-05-14T01:32:51.326Z,76.80
2018-05-14T01:35:18.829Z,76.80
2018-05-14T01:37:46.304Z,77.00
2018-05-14T01:40:13.804Z,76.90
2018-05-14T01:42:42.046Z,76.80
2018-05-14T01:45:09.541Z,76.80
2018-05-14T01:47:37.777Z,76.90
2018-05-14T01:50:05.270Z,76.90
2018-05-14T01:52:32.744Z,77.00
2018-05-14T01:55:01.063Z,76.90
2018-05-14T01:57:28.525Z,76.90
2018-05-14T01:59:56.011Z,76.90
2018-05-14T02:02:23.528Z,76.90
2018-05-14T02:04:51.049Z,77.00
2018-05-14T02:07:19.294Z,76.90
2018-05-14T02:09:46.774Z,76.90
2018-05-14T02:12:14.285Z,77.00
2018-05-14T02:14:41.749Z,77.00
2018-05-14T02:17:09.253Z,76.90
2018-05-14T02:19:36.713Z,77.00
2018-05-14T02:22:04.973Z,77.10
2018-05-14T02:24:33.212Z,77.10
2018-05-14T02:27:00.743Z,77.10
2018-05-14T02:29:29.012Z,77.10
2018-05-14T02:31:57.297Z,77.10
2018-05-14T02:34:25.557Z,77.10
2018-05-14T02:36:53.800Z,77.20
2018-05-14T02:39:21.300Z,77.20
2018-05-14T02:41:49.556Z,77.20
2018-05-14T02:44:17.055Z,77.20
2018-05-14T02:46:44.534Z,77.30
2018-05-14T02:49:12.030Z,77.20
2018-05-14T02:51:39.502Z,77.20
2018-05-14T02:54:07.765Z,77.40
2018-05-14T02:56:35.242Z,77.30
2018-05-14T02:59:03.524Z,77.30
2018-05-14T03:01:31.762Z,77.40
2018-05-14T03:03:59.248Z,77.30
2018-05-14T03:06:27.512Z,77.40
2018-05-14T03:08:55.039Z,77.40
2018-05-14T03:11:22.510Z,77.30
2018-05-14T03:13:50.006Z,77.40
2018-05-14T03:16:18.265Z,77.30
2018-05-14T03:18:46.065Z,77.30
2018-05-14T03:21:13.581Z,77.30
2018-05-14T03:23:41.043Z,77.40
2018-05-14T03:26:08.556Z,77.30
2018-05-14T03:28:36.053Z,77.30
2018-05-14T03:31:03.574Z,77.30
2018-05-14T03:33:31.064Z,77.30
2018-05-14T03:35:58.541Z,77.30
2018-05-14T03:38:26.033Z,77.30
2018-05-14T03:40:53.540Z,77.30
2018-05-14T03:43:21.029Z,77.40
2018-05-14T03:45:48.509Z,77.40
2018-05-14T03:48:16.017Z,77.50
2018-05-14T03:50:43.493Z,77.40
2018-05-14T03:53:11.774Z,77.50
2018-05-14T03:55:39.267Z,77.50
2018-05-14T03:58:07.628Z,77.40
2018-05-14T04:00:47.925Z,77.40
2018-05-14T04:03:27.286Z,77.40
2018-05-14T04:06:06.577Z,77.30
2018-05-14T04:08:34.090Z,77.40
2018-05-14T04:11:01.579Z,77.50
2018-05-14T04:13:29.841Z,77.50
2018-05-14T04:15:57.333Z,77.50
2018-05-14T04:18:24.833Z,77.50
2018-05-14T04:20:52.307Z,77.60
2018-05-14T04:23:19.819Z,77.50
2018-05-14T04:25:47.325Z,77.60
2018-05-14T04:28:15.607Z,77.70
2018-05-14T04:30:43.133Z,77.70
2018-05-14T04:33:10.666Z,77.70
2018-05-14T04:35:38.150Z,77.60
2018-05-14T04:38:05.641Z,77.70
2018-05-14T04:40:33.168Z,77.70
2018-05-14T04:43:00.632Z,77.70
2018-05-14T04:45:28.129Z,77.70
2018-05-14T04:47:56.398Z,77.80
2018-05-14T04:50:23.918Z,77.70
2018-05-14T04:52:51.400Z,77.70
2018-05-14T04:55:18.901Z,77.80
2018-05-14T04:57:46.391Z,77.80
2018-05-14T05:00:13.909Z,77.80
2018-05-14T05:02:42.153Z,77.80
2018-05-14T05:05:09.672Z,77.80
2018-05-14T05:07:37.165Z,77.90
2018-05-14T05:10:04.661Z,77.90
2018-05-14T05:12:33.080Z,77.90
2018-05-14T05:15:00.585Z,77.80
2018-05-14T05:17:28.069Z,77.90
2018-05-14T05:19:56.305Z,78.00
2018-05-14T05:22:23.810Z,78.00
2018-05-14T05:24:52.042Z,78.10
2018-05-14T05:27:19.530Z,78.10
2018-05-14T05:29:47.780Z,78.10
2018-05-14T05:32:15.282Z,78.10
2018-05-14T05:34:43.520Z,78.00
2018-05-14T05:37:11.027Z,78.00
2018-05-14T05:39:38.539Z,78.20
2018-05-14T05:42:06.067Z,78.20
2018-05-14T05:44:33.582Z,78.10
2018-05-14T05:47:01.844Z,78.50
2018-05-14T05:49:30.129Z,78.30
2018-05-14T05:51:58.390Z,78.30
2018-05-14T05:54:25.901Z,78.30
2018-05-14T05:56:53.400Z,78.30
2018-05-14T05:59:20.920Z,78.30
2018-05-14T06:01:48.398Z,78.30
2018-05-14T06:04:15.904Z,78.30
2018-05-14T06:06:44.152Z,78.30
2018-05-14T06:09:11.650Z,78.30
2018-05-14T06:11:39.937Z,78.20
2018-05-14T06:14:07.443Z,78.20
2018-05-14T06:16:34.938Z,78.50
2018-05-14T06:19:03.241Z,78.80
2018-05-14T06:21:30.710Z,78.80
2018-05-14T06:23:58.239Z,78.20
2018-05-14T06:26:26.512Z,78.70
2018-05-14T06:28:54.778Z,78.90
2018-05-14T06:31:23.064Z,78.30
2018-05-14T06:33:51.306Z,78.20
2018-05-14T06:36:18.819Z,78.20
2018-05-14T06:38:46.677Z,77.90
2018-05-14T06:41:14.801Z,77.90
2018-05-14T06:43:42.302Z,77.90
2018-05-14T06:46:10.584Z,78.20
2018-05-14T06:48:38.819Z,78.60
2018-05-14T06:51:06.306Z,78.60
2018-05-14T06:53:34.544Z,78.00
2018-05-14T06:56:02.065Z,78.00
2018-05-14T06:58:29.570Z,78.20
2018-05-14T07:00:57.072Z,78.70
2018-05-14T07:03:25.354Z,78.50
2018-05-14T07:05:53.611Z,78.40
2018-05-14T07:08:21.896Z,79.10
2018-05-14T07:10:50.145Z,78.70
2018-05-14T07:13:17.654Z,78.70
2018-05-14T07:15:45.114Z,78.60
2018-05-14T07:18:12.627Z,78.30
2018-05-14T07:20:40.107Z,78.50
2018-05-14T07:23:08.389Z,78.30
2018-05-14T07:25:36.659Z,78.50
2018-05-14T07:28:04.901Z,78.30
2018-05-14T07:30:32.384Z,78.30
2018-05-14T07:32:59.867Z,78.30
2018-05-14T07:35:27.389Z,78.10
2018-05-14T07:37:54.847Z,77.50
2018-05-14T07:40:22.353Z,77.00
2018-05-14T07:42:49.824Z,77.00
2018-05-14T07:45:17.321Z,77.00
2018-05-14T07:47:44.849Z,76.90
2018-05-14T07:50:12.354Z,77.10
2018-05-14T07:52:41.345Z,75.80
2018-05-14T07:55:08.842Z,75.80
2018-05-14T07:57:36.326Z,75.60
2018-05-14T08:00:03.822Z,76.40
2018-05-14T08:02:32.049Z,76.20
2018-05-14T08:04:59.582Z,76.20
2018-05-14T08:07:27.854Z,75.40
2018-05-14T08:09:56.082Z,75.30
2018-05-14T08:12:23.592Z,75.20
2018-05-14T08:14:51.831Z,74.30
2018-05-14T08:17:19.337Z,74.20
2018-05-14T08:19:46.808Z,76.20
2018-05-14T08:22:14.309Z,73.90
2018-05-14T08:24:42.564Z,73.00
2018-05-14T08:27:10.078Z,73.00
2018-05-14T08:29:38.332Z,75.70
2018-05-14T08:32:05.840Z,75.60
2018-05-14T08:34:33.297Z,75.30
2018-05-14T08:37:00.909Z,74.80
2018-05-14T08:39:29.065Z,75.90
2018-05-14T08:41:56.553Z,75.90
2018-05-14T08:44:24.837Z,73.30
2018-05-14T08:46:53.495Z,73.40
2018-05-14T08:49:20.956Z,73.30
2018-05-14T08:51:48.432Z,73.30
2018-05-14T08:54:16.815Z,74.30
2018-05-14T08:56:44.181Z,74.30
2018-05-14T08:59:12.485Z,72.80
2018-05-14T09:01:39.945Z,72.80
2018-05-14T09:04:07.453Z,71.60
2018-05-14T09:06:34.921Z,70.10
2018-05-14T09:09:03.201Z,71.20
2018-05-14T09:11:31.451Z,69.00
2018-05-14T09:13:58.937Z,68.90
2018-05-14T09:16:27.201Z,65.70
2018-05-14T09:18:54.721Z,65.70
2018-05-14T09:21:22.239Z,68.30
2018-05-14T09:23:50.470Z,67.20
2018-05-14T09:26:17.985Z,67.20
2018-05-14T09:28:46.225Z,65.70
2018-05-14T09:31:13.728Z,65.70
2018-05-14T09:33:41.249Z,67.40
2018-05-14T09:36:08.774Z,66.40
2018-05-14T09:38:36.275Z,68.00
2018-05-14T09:41:03.774Z,66.80
2018-05-14T09:43:31.329Z,66.10
2018-05-14T09:45:58.799Z,70.00
2018-05-14T09:48:26.319Z,65.80
2018-05-14T09:50:54.556Z,67.20
2018-05-14T09:53:22.060Z,67.20
2018-05-14T09:55:50.333Z,69.00
2018-05-14T09:58:18.617Z,67.40
2018-05-14T10:00:46.858Z,68.90
2018-05-14T10:03:14.348Z,68.90
2018-05-14T10:05:42.585Z,68.90
2018-05-14T10:08:10.066Z,68.90
2018-05-14T10:10:37.570Z,71.60
2018-05-14T10:13:05.072Z,69.50
2018-05-14T10:15:32.551Z,70.60
2018-05-14T10:18:00.789Z,68.50
2018-05-14T10:20:28.291Z,68.40
2018-05-14T10:22:56.788Z,70.20
2018-05-14T10:25:24.844Z,71.10
2018-05-14T10:27:53.077Z,69.40
2018-05-14T10:30:20.603Z,69.30
2018-05-14T10:32:48.120Z,69.80
2018-05-14T10:35:15.610Z,71.90
2018-05-14T10:37:43.073Z,70.80
2018-05-14T10:40:10.586Z,71.80
2018-05-14T10:42:38.088Z,72.00
2018-05-14T10:45:06.383Z,71.90
2018-05-14T10:47:33.870Z,71.90
2018-05-14T10:50:01.363Z,71.50
2018-05-14T10:52:29.637Z,71.40
2018-05-14T10:54:57.890Z,70.80
2018-05-14T10:57:25.366Z,70.70
2018-05-14T10:59:52.874Z,72.40
2018-05-14T11:02:21.061Z,73.10
2018-05-14T11:04:48.529Z,71.60
2018-05-14T11:07:16.037Z,71.00
2018-05-14T11:09:44.293Z,71.70
2018-05-14T11:12:11.803Z,71.70
2018-05-14T11:14:39.273Z,72.00
2018-05-14T11:17:06.773Z,72.20
2018-05-14T11:19:35.050Z,71.60
2018-05-14T11:22:03.368Z,72.00
2018-05-14T11:24:30.877Z,72.00
2018-05-14T11:26:58.393Z,70.50
2018-05-14T11:29:25.906Z,72.50
2018-05-14T11:31:53.402Z,70.00
2018-05-14T11:34:20.873Z,71.90
2018-05-14T11:36:48.389Z,72.10
2018-05-14T11:39:16.646Z,72.50
2018-05-14T11:41:44.143Z,72.40
2018-05-14T11:44:11.682Z,71.50
2018-05-14T11:46:39.939Z,71.70
2018-05-14T11:49:07.421Z,71.60
2018-05-14T11:51:35.677Z,70.60
2018-05-14T11:54:03.181Z,70.60
2018-05-14T11:56:30.649Z,69.90
2018-05-14T11:58:58.161Z,69.00
2018-05-14T12:01:25.643Z,69.10
2018-05-14T12:03:53.935Z,70.40
2018-05-14T12:06:21.405Z,70.40
2018-05-14T12:08:48.901Z,70.10
2018-05-14T12:11:16.380Z,71.60
2018-05-14T12:13:44.681Z,72.70
2018-05-14T12:16:12.235Z,72.70
2018-05-14T12:18:39.659Z,72.40
2018-05-14T12:21:07.928Z,72.60
2018-05-14T12:23:35.392Z,72.60
2018-05-14T12:26:02.889Z,72.70
2018-05-14T12:28:30.349Z,72.10
2018-05-14T12:30:57.850Z,72.10
2018-05-14T12:33:25.321Z,71.60
2018-05-14T12:35:52.809Z,70.70
2018-05-14T12:38:21.042Z,73.00
2018-05-14T12:40:48.541Z,73.00
2018-05-14T12:43:16.804Z,73.50
2018-05-14T12:45:44.312Z,73.50
2018-05-14T12:48:11.812Z,69.70
2018-05-14T12:50:39.292Z,70.60
2018-05-14T12:53:07.534Z,65.20
2018-05-14T12:55:35.025Z,65.10
2018-05-14T12:58:03.284Z,65.90
2018-05-14T13:00:30.764Z,65.80
2018-05-14T13:02:59.035Z,64.80
2018-05-14T13:05:27.270Z,66.80
2018-05-14T13:07:54.783Z,66.90
2018-05-14T13:10:23.046Z,67.70
2018-05-14T13:12:50.544Z,67.60
2018-05-14T13:15:18.024Z,68.50
2018-05-14T13:17:45.540Z,70.80
2018-05-14T13:20:13.777Z,74.00
2018-05-14T13:22:41.278Z,74.00
2018-05-14T13:25:08.792Z,74.10
2018-05-14T13:27:36.265Z,73.50
2018-05-14T13:30:03.761Z,75.20
2018-05-14T13:32:31.258Z,74.90
2018-05-14T13:34:58.750Z,74.50
2018-05-14T13:37:26.279Z,76.00
2018-05-14T13:39:53.776Z,74.40
2018-05-14T13:42:22.022Z,77.30
2018-05-14T13:44:49.526Z,77.20
2018-05-14T13:47:17.026Z,77.80
2018-05-14T13:49:44.545Z,74.50
2018-05-14T13:52:12.043Z,74.50
2018-05-14T13:54:39.573Z,75.00
2018-05-14T13:57:07.048Z,74.50
2018-05-14T13:59:34.529Z,74.10
2018-05-14T14:02:02.025Z,74.50
2018-05-14T14:04:30.269Z,77.70
2018-05-14T14:06:57.768Z,77.70
2018-05-14T14:09:26.017Z,74.20
2018-05-14T14:11:53.511Z,74.10
2018-05-14T14:14:21.002Z,76.20
2018-05-14T14:16:48.497Z,76.60
2018-05-14T14:19:16.015Z,76.70
2018-05-14T14:21:43.527Z,76.90
2018-05-14T14:24:11.826Z,77.30
2018-05-14T14:26:39.323Z,77.30
2018-05-14T14:29:06.803Z,77.30
2018-05-14T14:31:34.304Z,76.90
2018-05-14T14:34:01.833Z,77.90
2018-05-14T14:36:29.481Z,78.30
2018-05-14T14:38:57.585Z,76.60
2018-05-14T14:41:25.830Z,75.40
2018-05-14T14:43:53.322Z,75.40
2018-05-14T14:46:21.641Z,74.50
2018-05-14T14:48:49.082Z,74.50
2018-05-14T14:51:16.561Z,73.90
2018-05-14T14:53:44.061Z,75.10
2018-05-14T14:56:12.323Z,75.40
2018-05-14T14:58:39.827Z,75.40
2018-05-14T15:01:07.309Z,74.80
2018-05-14T15:03:34.823Z,73.60
2018-05-14T15:06:03.116Z,75.30
2018-05-14T15:08:30.935Z,75.20
2018-05-14T15:10:58.413Z,74.20
2018-05-14T15:13:26.696Z,75.20
2018-05-14T15:15:54.966Z,75.80
2018-05-14T15:18:22.575Z,75.80
2018-05-14T15:20:50.059Z,75.80
2018-05-14T15:23:17.521Z,75.80
2018-05-14T15:25:45.033Z,75.20
2018-05-14T15:28:12.530Z,75.90
2018-05-14T15:30:40.034Z,76.90
2018-05-14T15:33:08.321Z,76.70
2018-05-14T15:35:36.591Z,77.60
2018-05-14T15:38:04.834Z,77.50
2018-05-14T15:40:32.329Z,77.50
2018-05-14T15:43:00.564Z,78.30
2018-05-14T15:45:28.080Z,78.20
2018-05-14T15:47:55.577Z,77.50
2018-05-14T15:50:23.064Z,78.00
2018-05-14T15:52:51.342Z,78.40
2018-05-14T15:55:19.602Z,78.30
2018-05-14T15:57:47.102Z,78.30
2018-05-14T16:00:14.639Z,78.80
2018-05-14T16:02:42.889Z,79.10
2018-05-14T16:05:10.420Z,79.10
2018-05-14T16:07:37.943Z,78.10
2018-05-14T16:10:06.181Z,78.00
2018-05-14T16:12:33.763Z,77.90
2018-05-14T16:15:01.230Z,78.30
2018-05-14T16:17:29.480Z,77.80
2018-05-14T16:19:57.779Z,78.00
2018-05-14T16:22:25.289Z,78.00
2018-05-14T16:24:52.803Z,77.40
2018-05-14T16:27:21.089Z,78.00
2018-05-14T16:29:49.366Z,77.40
2018-05-14T16:32:17.661Z,77.00
2018-05-14T16:34:45.612Z,77.00
2018-05-14T16:37:13.882Z,77.30
2018-05-14T16:39:42.173Z,77.20
2018-05-14T16:42:10.405Z,77.20
2018-05-14T16:44:37.905Z,77.20
2018-05-14T16:47:05.414Z,77.00
2018-05-14T16:49:32.982Z,77.30
2018-05-14T16:52:00.458Z,76.70
2018-05-14T16:54:27.988Z,77.60
2018-05-14T16:56:55.453Z,77.60
2018-05-14T16:59:22.926Z,76.90
2018-05-14T17:01:50.431Z,77.90
2018-05-14T17:04:17.912Z,77.20
2018-05-14T17:06:45.422Z,77.10
2018-05-14T17:09:13.684Z,77.00
2018-05-14T17:11:41.941Z,77.20
2018-05-14T17:14:09.439Z,77.20
2018-05-14T17:16:37.697Z,77.90
2018-05-14T17:19:05.216Z,77.80
2018-05-14T17:21:32.709Z,77.40
2018-05-14T17:24:01.743Z,78.20
2018-05-14T17:26:29.301Z,78.20
2018-05-14T17:28:57.548Z,78.10
2018-05-14T17:31:25.053Z,78.10
2018-05-14T17:33:52.552Z,77.00
2018-05-14T17:36:20.086Z,77.20
2018-05-14T17:38:47.573Z,77.70
2018-05-14T17:41:16.619Z,77.50
2018-05-14T17:43:44.108Z,77.60
2018-05-14T17:46:11.631Z,77.60
2018-05-14T17:48:39.112Z,77.50
2018-05-14T17:51:06.632Z,77.50
2018-05-14T17:53:34.878Z,78.10
2018-05-14T17:56:02.399Z,78.10
2018-05-14T17:58:29.901Z,77.90
2018-05-14T18:00:57.385Z,77.00
2018-05-14T18:03:25.647Z,77.70
2018-05-14T18:05:54.616Z,77.90
2018-05-14T18:08:22.103Z,77.90
2018-05-14T18:10:49.618Z,78.10
2018-05-14T18:13:17.095Z,78.20
2018-05-14T18:15:44.556Z,78.30
2018-05-14T18:18:12.068Z,78.20
2018-05-14T18:20:40.388Z,78.40
2018-05-14T18:23:07.882Z,78.30
2018-05-14T18:25:41.896Z,78.70
2018-05-14T18:28:15.086Z,78.80
2018-05-14T18:30:45.962Z,78.40
2018-05-14T18:33:13.462Z,78.40
2018-05-14T18:35:56.566Z,78.40
2018-05-14T18:38:24.078Z,78.30
2018-05-14T18:40:52.346Z,78.40
2018-05-14T18:43:20.639Z,78.10
2018-05-14T18:45:48.106Z,78.00
2018-05-14T18:48:15.613Z,78.30
2018-05-14T18:50:43.126Z,78.30
2018-05-14T18:53:10.613Z,78.10
2018-05-14T18:55:38.133Z,78.10
2018-05-14T18:58:06.381Z,78.20
2018-05-14T19:00:33.901Z,78.20
2018-05-14T19:03:01.376Z,78.10
2018-05-14T19:05:28.882Z,78.00
2018-05-14T19:07:57.125Z,77.80
2018-05-14T19:10:31.970Z,77.70
2018-05-14T19:13:00.241Z,77.70
2018-05-14T19:15:34.209Z,77.70
2018-05-14T19:18:01.694Z,77.70
2018-05-14T19:20:29.212Z,78.00
2018-05-14T19:23:02.350Z,78.20
2018-05-14T19:25:29.823Z,78.10
2018-05-14T19:28:03.815Z,78.20
2018-05-14T19:30:31.317Z,78.20
2018-05-14T19:32:59.572Z,78.10
2018-05-14T19:38:30.078Z,78.10
2018-05-14T19:40:57.596Z,78.00
2018-05-14T19:43:25.881Z,78.20
2018-05-14T19:45:53.358Z,78.20
2018-05-14T19:48:20.889Z,78.30
2018-05-14T19:50:49.141Z,78.70
2018-05-14T19:53:16.657Z,78.70
2018-05-14T19:55:44.131Z,78.70
2018-05-14T19:58:11.667Z,78.70
2018-05-14T20:00:39.154Z,78.80
2018-05-14T20:03:06.680Z,78.80
2018-05-14T20:05:34.154Z,78.90
2018-05-14T20:08:01.633Z,78.90
2018-05-14T20:10:29.139Z,79.00
2018-05-14T20:12:57.395Z,79.00
2018-05-14T20:15:24.891Z,79.00
2018-05-14T20:17:52.395Z,79.00
2018-05-14T20:20:19.933Z,78.90
2018-05-14T20:22:47.436Z,78.90
2018-05-14T20:25:14.955Z,79.00
2018-05-14T20:27:42.450Z,79.00
2018-05-14T20:30:10.753Z,79.00
2018-05-14T20:32:39.000Z,79.10
2018-05-14T20:35:06.490Z,79.10
2018-05-14T20:37:33.983Z,79.10
2018-05-14T20:40:01.482Z,79.00
2018-05-14T20:42:29.750Z,79.10
2018-05-14T20:44:57.240Z,79.10
2018-05-14T20:47:24.764Z,79.10
2018-05-14T20:49:52.281Z,79.10
2018-05-14T20:52:19.795Z,79.10
2018-05-14T20:54:48.050Z,79.00
2018-05-14T20:57:15.572Z,79.00
2018-05-14T20:59:43.201Z,79.20
2018-05-14T21:02:11.384Z,79.20
2018-05-14T21:04:39.621Z,79.20
2018-05-14T21:07:07.926Z,79.30
2018-05-14T21:09:37.013Z,79.20
2018-05-14T21:12:04.510Z,79.20
2018-05-14T21:14:31.982Z,79.30
2018-05-14T21:16:59.490Z,79.30
2018-05-14T21:19:27.003Z,79.10
2018-05-14T21:21:54.605Z,79.00
2018-05-14T21:24:22.861Z,78.70
2018-05-14T21:26:50.387Z,78.70
2018-05-14T21:29:17.876Z,78.80
2018-05-14T21:31:45.376Z,78.80
2018-05-14T21:34:13.648Z,78.30
2018-05-14T21:36:41.893Z,78.40
2018-05-14T21:39:09.420Z,78.40
2018-05-14T21:41:36.904Z,78.10
2018-05-14T21:44:04.393Z,77.70
2018-05-14T21:46:31.925Z,77.80
2018-05-14T21:48:59.406Z,77.30
2018-05-14T21:51:26.927Z,77.60
2018-05-14T21:53:54.426Z,76.80
2018-05-14T21:56:21.953Z,76.70
2018-05-14T21:58:49.456Z,76.50
2018-05-14T22:01:17.696Z,76.80
2018-05-14T22:03:45.195Z,76.70
2018-05-14T22:06:14.262Z,76.70
2018-05-14T22:08:41.742Z,76.70
2018-05-14T22:11:10.015Z,77.90
2018-05-14T22:13:38.272Z,77.80
2018-05-14T22:16:05.769Z,77.80
2018-05-14T22:18:34.056Z,77.40
2018-05-14T22:21:02.299Z,77.50
2018-05-14T22:23:29.805Z,77.50
2018-05-14T22:25:57.292Z,77.50
2018-05-14T22:28:24.806Z,77.50
2018-05-14T22:30:53.073Z,77.80
2018-05-14T22:33:21.362Z,77.80
2018-05-14T22:35:49.633Z,77.80
2018-05-14T22:38:17.142Z,77.80
2018-05-14T22:40:44.618Z,77.90
2018-05-14T22:43:12.140Z,77.80
2018-05-14T22:45:39.606Z,77.80
2018-05-14T22:48:07.125Z,77.90
2018-05-14T22:50:35.372Z,77.90
2018-05-14T22:53:02.888Z,77.80
2018-05-14T22:55:30.425Z,77.50
2018-05-14T22:57:57.939Z,77.60
2018-05-14T23:00:27.283Z,77.70
2018-05-14T23:02:55.553Z,77.20
2018-05-14T23:05:23.794Z,77.10
2018-05-14T23:07:51.314Z,77.10
2018-05-14T23:10:18.810Z,77.20
2018-05-14T23:12:46.292Z,77.00
2018-05-14T23:15:14.573Z,77.10
2018-05-14T23:17:42.808Z,76.90
2018-05-14T23:20:10.306Z,76.90
2018-05-14T23:22:41.401Z,76.50
2018-05-14T23:25:08.901Z,76.50
2018-05-14T23:27:36.372Z,76.50
2018-05-14T23:30:04.649Z,76.40
2018-05-14T23:32:32.913Z,76.20
2018-05-14T23:35:00.420Z,76.20
2018-05-14T23:37:27.901Z,76.50
2018-05-14T23:39:55.368Z,76.20
2018-05-14T23:42:22.854Z,76.10
2018-05-14T23:44:51.096Z,76.30
2018-05-14T23:47:18.596Z,76.20
2018-05-14T23:49:46.842Z,76.20
2018-05-14T23:52:14.358Z,76.20
2018-05-14T23:54:41.831Z,76.00
2018-05-14T23:57:09.329Z,76.00
2018-05-14T23:59:36.829Z,75.90
